Latest Weather Observations for Coober Pedy Airport

IDS60801

Issued at 5:05 pm CDT Wednesday 22 October 2014 (issued every 30 minutes, with the page automatically refreshed every 10 minutes)

About weather observations | Map of weather stations | Latest weather observations for SA | Other Formats
Station Details ID: 016090 Name: COOBER PEDY AIRPORT Lat: -29.03 Lon: 134.72 Height: 225.0 m
Data from the previous 72 hours. | See also: Recent months at Coober Pedy Airport
Date/Time
CDT
Temp
°C
App
Temp
°C
Dew
Point
Rel
Hum
%
Delta-T
°C
Wind Press
QNH
hPa
Press
MSL
hPa
Rain
since 9 am
mm
Dir
 
Spd
km/h
Gust
km/h
Spd
kts
Gust
kts
22/05:00pm 35.0 31.3 0.2 11 17.4 SSE 9 17 5 9 1015.9 1015.1 0.0
22/04:30pm 34.7 28.9 -0.1 11 17.3 SSW 20 28 11 15 1016.1 1015.3 0.0
22/04:00pm 35.7 30.0 -0.6 10 18.0 SSW 19 33 10 18 1016.1 1015.3 0.0
22/03:30pm 35.2 30.0 0.3 11 17.5 SSW 17 32 9 17 1016.5 1015.7 0.0
22/03:00pm 34.6 29.0 -0.1 11 17.2 SW 19 30 10 16 1016.8 1016.1 0.0
22/02:30pm 34.1 28.8 -0.5 11 17.0 SSE 17 24 9 13 1017.2 1016.5 0.0
22/02:00pm 33.6 28.1 0.3 12 16.5 S 19 30 10 16 1017.6 1016.8 0.0
22/01:30pm 34.8 29.4 1.2 12 17.0 SSW 19 26 10 14 1017.8 1017.0 0.0
22/01:00pm 32.4 26.8 1.5 14 15.5 S 20 28 11 15 1018.3 1017.5 0.0
22/12:30pm 31.8 25.9 3.8 17 14.5 S 24 35 13 19 1018.6 1017.8 0.0
22/12:00pm 31.7 25.5 4.5 18 14.3 S 26 39 14 21 1018.8 1018.0 0.0
22/11:30am 29.4 23.8 5.5 22 12.6 S 24 32 13 17 1019.0 1018.2 0.0
22/11:00am 28.3 23.4 7.0 26 11.5 S 22 32 12 17 1019.3 1018.5 0.0
22/10:30am 26.9 21.4 7.4 29 10.5 S 26 32 14 17 1019.4 1018.6 0.0
22/10:00am 25.2 19.8 7.8 33 9.3 S 26 33 14 18 1019.5 1018.7 0.0
22/09:30am 23.6 18.6 8.1 37 8.3 S 24 30 13 16 1019.3 1018.5 0.0
22/09:00am 22.4 17.3 7.8 39 7.7 SSW 24 28 13 15 1019.1 1018.3 0.0
22/08:30am 21.4 16.4 8.0 42 7.0 S 24 28 13 15 1018.8 1018.0 0.0
22/08:00am 20.5 15.4 7.5 43 6.7 SSW 24 30 13 16 1018.6 1017.8 0.0
22/07:30am 20.0 15.0 6.4 41 6.9 SSW 22 30 12 16 1018.4 1017.6 0.0
22/07:00am 19.8 15.0 5.5 39 7.1 SSW 20 24 11 13 1018.0 1017.2 0.0
22/06:30am 20.6 15.3 5.0 36 7.7 SSW 22 26 12 14 1017.7 1016.9 0.0
22/06:00am 21.4 16.5 4.9 34 8.2 SSW 20 26 11 14 1017.4 1016.6 0.0
22/05:30am 22.2 17.4 4.7 32 8.7 SSW 19 24 10 13 1017.0 1016.3 0.0
22/05:00am 22.5 17.2 5.0 32 8.8 S 22 30 12 16 1016.6 1015.8 0.0
22/04:30am 22.9 17.2 4.9 31 9.0 S 24 28 13 15 1016.8 1016.1 0.0
22/04:00am 23.5 18.6 4.9 30 9.4 S 20 26 11 14 1016.7 1015.9 0.0
22/03:30am 24.3 17.9 5.1 29 9.8 S 28 33 15 18 1016.8 1016.1 0.0
22/03:00am 24.8 18.0 5.1 28 10.0 S 30 35 16 19 1017.0 1016.3 0.0
22/02:30am 25.3 18.5 5.0 27 10.4 S 30 41 16 22 1017.4 1016.6 0.0
22/02:00am 25.3 18.9 5.0 27 10.4 S 28 33 15 18 1017.4 1016.6 0.0
22/01:30am 25.9 18.1 4.9 26 10.7 S 35 46 19 25 1017.6 1016.8 0.0
22/01:18am 26.4 19.0 4.8 25 11.1 S 33 56 18 30 1017.2 1016.5 0.0
22/01:00am 26.6 18.7 4.4 24 11.3 S 35 48 19 26 1017.6 1016.8 0.0
22/12:30am 27.6 19.3 4.0 22 12.0 S 37 46 20 25 1017.6 1016.8 0.0
22/12:00am 29.1 21.5 3.1 19 13.1 S 32 50 17 27 1017.2 1016.5 0.0
 
Date/Time
CDT
Temp
°C
App
Temp
°C
Dew
Point
Rel
Hum
%
Delta-T
°C
Wind Press
QNH
hPa
Press
MSL
hPa
Rain
since 9 am
mm
Dir
 
Spd
km/h
Gust
km/h
Spd
kts
Gust
kts
21/11:58pm 29.2 22.0 3.2 19 13.2 S 30 50 16 27 1017.0 1016.3 0.0
21/11:30pm 31.3 26.2 -5.3 9 16.3 E 13 17 7 9 1016.7 1015.9 0.0
21/11:00pm 33.1 26.6 -5.5 8 17.4 ESE 20 22 11 12 1016.6 1015.8 0.0
21/10:30pm 33.3 26.1 -5.4 8 17.4 SSE 24 32 13 17 1016.5 1015.7 0.0
21/10:00pm 32.4 28.4 -6.0 8 17.0 SSE 7 17 4 9 1016.1 1015.3 0.0
21/09:30pm 33.0 28.6 -5.6 8 17.3 E 9 11 5 6 1015.5 1014.7 0.0
21/09:00pm 33.5 29.5 -5.2 8 17.5 NNE 7 11 4 6 1015.3 1014.5 0.0
21/08:30pm 34.0 28.6 -4.9 8 17.8 NE 15 17 8 9 1015.0 1014.2 0.0
21/08:00pm 35.6 30.1 -5.5 7 18.8 NNE 15 19 8 10 1014.6 1013.8 0.0
21/07:30pm 36.8 31.8 -4.6 7 19.4 N 13 19 7 10 1014.2 1013.4 0.0
21/07:00pm 37.0 28.4 -4.4 7 19.5 NNW 32 54 17 29 1014.2 1013.4 0.0
21/06:47pm 37.1 29.2 -4.4 7 19.6 N 28 59 15 32 1013.8 1013.0 0.0
21/06:30pm 37.7 31.2 -6.0 6 20.2 N 20 30 11 16 1013.7 1012.9 0.0
21/06:00pm 37.9 30.6 -5.8 6 20.3 N 24 33 13 18 1013.7 1012.9 0.0
21/05:30pm 38.8 32.3 -7.6 5 21.1 N 19 32 10 17 1013.9 1013.1 0.0
21/05:00pm 38.3 29.7 -7.9 5 20.8 N 30 41 16 22 1013.9 1013.1 0.0
21/04:53pm 39.4 31.3 -7.2 5 21.4 N 28 46 15 25 1013.9 1013.1 0.0
21/04:30pm 38.8 31.6 -5.2 6 20.7 N 24 39 13 21 1014.1 1013.3 0.0
21/04:00pm 38.7 30.7 -5.3 6 20.7 N 28 41 15 22 1014.2 1013.4 0.0
21/03:53pm 39.0 29.7 -5.1 6 20.8 N 35 54 19 29 1014.3 1013.5 0.0
21/03:30pm 38.5 30.5 -5.4 6 20.6 N 28 39 15 21 1014.6 1013.8 0.0
21/03:00pm 38.2 30.6 -5.6 6 20.4 NNW 26 41 14 22 1015.2 1014.4 0.0
21/02:30pm 38.5 29.6 -5.4 6 20.6 N 33 44 18 24 1015.8 1015.0 0.0
21/02:00pm 38.2 28.9 -5.6 6 20.4 N 35 48 19 26 1016.4 1015.6 0.0
21/01:30pm 37.6 28.5 -4.0 7 19.8 N 35 50 19 27 1016.9 1016.2 0.0
21/01:00pm 37.7 27.8 -3.9 7 19.8 N 39 54 21 29 1017.4 1016.6 0.0
21/12:31pm 36.7 26.5 -2.9 8 19.1 N 41 59 22 32 1017.8 1017.0 0.0
21/12:30pm 36.7 26.2 -2.9 8 19.0 N 43 59 23 32 1017.9 1017.1 0.0
21/12:04pm 36.8 27.0 -2.8 8 19.1 N 39 72 21 39 1018.1 1017.3 0.0
21/12:00pm 36.7 26.9 -2.9 8 19.0 N 39 54 21 29 1018.3 1017.5 0.0
21/11:30am 35.8 25.6 -3.5 8 18.6 N 41 52 22 28 1018.5 1017.7 0.0
21/11:00am 35.0 23.9 -2.6 9 18.0 N 46 57 25 31 1018.6 1017.8 0.0
21/10:30am 33.7 23.3 -2.1 10 17.1 N 43 54 23 29 1018.5 1017.7 0.0
21/10:04am 32.2 22.9 -2.0 11 16.2 N 37 57 20 31 1018.4 1017.6 0.0
21/10:00am 31.9 22.6 -2.2 11 16.1 NNE 37 44 20 24 1018.4 1017.6 0.0
21/09:30am 29.2 20.7 -2.0 13 14.4 NNE 33 44 18 24 1018.4 1017.6 0.0
21/09:00am 26.6 19.6 -3.1 14 13.2 NNE 24 30 13 16 1018.3 1017.5 0.0
21/08:30am 24.2 18.0 -3.2 16 11.9 NNE 20 26 11 14 1018.0 1017.2 0.0
21/08:00am 21.9 16.2 -3.5 18 10.8 NNE 17 17 9 9 1017.7 1016.9 0.0
21/07:30am 21.7 15.6 -3.6 18 10.7 NNE 19 20 10 11 1017.4 1016.6 0.0
21/07:00am 21.6 15.9 -3.7 18 10.7 NNE 17 20 9 11 1016.7 1015.9 0.0
21/06:30am 22.0 15.8 -3.4 18 10.8 NNE 20 20 11 11 1016.4 1015.6 0.0
21/06:00am 22.9 16.3 -3.4 17 11.3 NNE 22 28 12 15 1016.0 1015.2 0.0
21/05:30am 23.4 16.4 -3.8 16 11.6 NE 24 28 13 15 1015.7 1014.9 0.0
21/05:00am 23.8 16.8 -3.5 16 11.8 NNE 24 30 13 16 1015.6 1014.8 0.0
21/04:30am 23.3 17.0 -3.9 16 11.6 NNE 20 24 11 13 1015.6 1014.8 0.0
21/04:00am 23.5 16.9 -3.7 16 11.7 NNE 22 26 12 14 1015.5 1014.7 0.0
21/03:30am 24.0 17.0 -3.3 16 11.8 NE 24 28 13 15 1015.6 1014.8 0.0
21/03:00am 24.7 17.7 -3.6 15 12.3 NE 24 30 13 16 1015.5 1014.7 0.0
21/02:30am 24.8 17.3 -4.5 14 12.5 NE 26 32 14 17 1015.6 1014.8 0.0
21/02:00am 25.4 18.0 -4.0 14 12.7 NE 26 32 14 17 1015.8 1015.0 0.0
21/01:30am 25.8 18.3 -4.7 13 13.1 NE 26 32 14 17 1016.1 1015.3 0.0
21/01:00am 26.6 18.3 -5.1 12 13.6 NE 30 37 16 20 1016.3 1015.5 0.0
21/12:30am 27.9 19.0 -5.2 11 14.3 NE 33 46 18 25 1016.3 1015.5 0.0
21/12:00am 28.3 19.5 -6.2 10 14.7 NE 32 41 17 22 1016.6 1015.8 0.0
 
Date/Time
CDT
Temp
°C
App
Temp
°C
Dew
Point
Rel
Hum
%
Delta-T
°C
Wind Press
QNH
hPa
Press
MSL
hPa
Rain
since 9 am
mm
Dir
 
Spd
km/h
Gust
km/h
Spd
kts
Gust
kts
20/11:30pm 29.0 20.1 -7.0 9 15.2 NE 32 39 17 21 1016.7 1015.9 0.0
20/11:00pm 29.1 20.1 -8.5 8 15.5 NE 32 39 17 21 1016.7 1015.9 0.0
20/10:30pm 29.8 22.0 -8.0 8 15.8 NE 26 32 14 17 1016.8 1016.1 0.0
20/10:00pm 30.1 23.1 -7.7 8 16.0 NE 22 28 12 15 1016.8 1016.1 0.0
20/09:30pm 30.6 23.4 -9.1 7 16.4 NE 22 24 12 13 1016.6 1015.8 0.0
20/09:00pm 31.2 24.6 -8.6 7 16.7 ENE 19 24 10 13 1016.3 1015.5 0.0
20/08:30pm 31.5 25.3 -8.4 7 16.8 NE 17 20 9 11 1016.0 1015.2 0.0
20/08:00pm 32.4 26.9 -9.7 6 17.5 NE 13 15 7 8 1015.6 1014.8 0.0
20/07:30pm 35.2 28.5 -10.1 5 19.2 NNE 19 22 10 12 1015.2 1014.4 0.0
20/07:00pm 36.6 30.2 -11.9 4 20.2 NNE 17 20 9 11 1014.9 1014.1 0.0
20/06:30pm 37.1 31.1 -11.6 4 20.5 NNE 15 26 8 14 1014.7 1013.9 0.0
20/06:00pm 37.5 31.9 -11.3 4 20.7 N 13 20 7 11 1014.7 1013.9 0.0
20/05:38pm 37.9 29.5 -11.0 4 20.9 NNE 28 33 15 18 1014.6 1013.8 0.0
20/05:30pm 37.5 32.6 -11.3 4 20.7 NNW 9 15 5 8 1014.6 1013.8 0.0
20/05:00pm 37.2 30.4 -11.5 4 20.6 NNE 19 24 10 13 1014.8 1014.0 0.0
20/04:30pm 37.2 29.9 -11.5 4 20.5 NE 22 32 12 17 1014.9 1014.1 0.0
20/04:00pm 37.8 29.3 -11.1 4 20.9 NNE 28 37 15 20 1015.2 1014.4 0.0
20/03:30pm 37.7 30.8 -11.1 4 20.8 NE 20 39 11 21 1015.6 1014.8 0.0
20/03:00pm 37.7 31.1 -14.7 3 21.1 N 17 24 9 13 1016.1 1015.3 0.0
20/02:30pm 37.1 32.2 -11.6 4 20.5 E 9 15 5 8 1016.4 1015.6 0.0
20/02:00pm 37.4 30.1 -11.4 4 20.7 N 22 32 12 17 1017.2 1016.5 0.0
20/01:30pm 38.1 28.9 -10.9 4 21.0 N 32 37 17 20 1017.7 1016.9 0.0
20/01:26pm 37.3 28.8 -11.4 4 20.6 NNE 28 46 15 25 1017.7 1016.9 0.0
20/01:00pm 36.8 28.1 -9.0 5 20.0 N 30 39 16 21 1018.1 1017.3 0.0
20/12:30pm 35.8 26.7 -7.3 6 19.2 N 33 43 18 23 1018.6 1017.8 0.0
20/12:08pm 35.6 26.5 -7.5 6 19.1 N 33 52 18 28 1019.0 1018.2 0.0
20/12:00pm 35.7 26.6 -9.7 5 19.4 NNE 32 48 17 26 1019.1 1018.3 0.0
20/11:30am 34.4 25.2 -10.6 5 18.8 NNE 32 43 17 23 1019.6 1018.8 0.0
20/11:00am 32.0 23.5 -12.3 5 17.6 NNE 28 35 15 19 1020.0 1019.2 0.0
20/10:30am 30.4 21.9 -11.2 6 16.5 NE 28 35 15 19 1020.3 1019.5 0.0
20/10:00am 28.8 21.4 -12.3 6 15.8 NE 22 28 12 15 1020.1 1019.3 0.0
20/09:30am 27.2 19.5 -11.5 7 14.8 NE 24 32 13 17 1020.1 1019.3 0.0
20/09:00am 25.4 18.5 -11.2 8 13.8 NE 20 28 11 15 1019.9 1019.1 0.0
20/08:30am 24.1 17.8 -10.7 9 13.1 ENE 17 20 9 11 1019.8 1019.0 0.0
20/08:00am 21.7 15.7 -11.2 10 12.0 ENE 15 17 8 9 1019.4 1018.6 0.0
20/07:30am 19.0 12.6 -11.0 12 10.6 ENE 17 17 9 9 1019.0 1018.2 0.0
20/07:00am 18.9 12.1 -12.2 11 10.7 ENE 19 20 10 11 1018.6 1017.8 0.0
20/06:30am 20.1 13.3 -12.4 10 11.3 NE 19 22 10 12 1018.4 1017.6 0.0
20/06:00am 21.5 14.7 -12.7 9 12.0 ENE 19 22 10 12 1018.2 1017.4 0.0
20/05:30am 21.4 14.9 -12.7 9 12.0 ENE 17 20 9 11 1017.8 1017.0 0.0
20/05:00am 21.8 15.0 -12.4 9 12.2 ENE 19 24 10 13 1017.7 1016.9 0.0
20/04:30am 22.4 15.4 -12.0 9 12.4 ENE 20 24 11 13 1017.5 1016.7 0.0
20/04:00am 22.3 15.4 -13.5 8 12.6 ENE 19 20 10 11 1017.6 1016.8 0.0
20/03:30am 23.0 15.9 -13.0 8 12.8 ENE 20 24 11 13 1017.7 1016.9 0.0
20/03:00am 22.3 15.2 -13.5 8 12.5 ENE 20 24 11 13 1017.8 1017.0 0.0
20/02:30am 21.6 15.1 -12.6 9 12.1 ENE 17 19 9 10 1018.0 1017.2 0.0
20/02:00am 22.2 15.3 -13.6 8 12.5 ENE 19 20 10 11 1018.4 1017.6 0.0
20/01:30am 22.5 16.4 -13.4 8 12.6 ENE 15 20 8 11 1018.6 1017.8 0.0
20/01:00am 24.5 17.0 -13.5 7 13.7 ENE 22 28 12 15 1018.4 1017.6 0.0
20/12:30am 23.8 16.7 -14.0 7 13.3 ENE 20 22 11 12 1018.2 1017.4 0.0
20/12:00am 24.6 17.0 -15.3 6 13.9 ENE 22 28 12 15 1018.3 1017.5 0.0
 
Date/Time
CDT
Temp
°C
App
Temp
°C
Dew
Point
Rel
Hum
%
Delta-T
°C
Wind Press
QNH
hPa
Press
MSL
hPa
Rain
since 9 am
mm
Dir
 
Spd
km/h
Gust
km/h
Spd
kts
Gust
kts
19/11:30pm 23.8 17.6 -14.0 7 13.3 ENE 15 19 8 10 1018.3 1017.5 0.0
19/11:00pm 24.5 18.3 -15.4 6 13.9 ENE 15 17 8 9 1018.7 1017.9 0.0
19/10:30pm 25.3 18.7 -14.8 6 14.2 ENE 17 19 9 10 1018.7 1017.9 0.0
19/10:00pm 26.3 19.3 -16.3 5 14.9 ENE 19 22 10 12 1018.4 1017.6 0.0
19/09:30pm 26.8 19.8 -15.9 5 15.1 ENE 19 20 10 11 1018.2 1017.4 0.0
19/09:00pm 26.3 19.6 -16.3 5 14.9 ENE 17 19 9 10 1018.0 1017.2 0.0
19/08:30pm 27.7 21.3 -18.0 4 15.7 NE 15 15 8 8 1017.7 1016.9 0.0
19/08:00pm 29.2 22.9 -16.9 4 16.5 NE 15 17 8 9 1017.4 1016.6 0.0
19/07:30pm 31.7 25.3 -18.6 3 18.0 NE 15 19 8 10 1016.9 1016.2 0.0
19/07:00pm 33.7 27.0 -17.3 3 19.0 NE 17 20 9 11 1016.7 1015.9 0.0
19/06:30pm 34.3 27.8 -21.6 2 19.6 N 15 20 8 11 1016.4 1015.6 0.0
19/06:00pm 34.6 27.2 -21.4 2 19.8 NNE 20 26 11 14 1016.3 1015.5 0.0
19/05:30pm 34.8 29.5 -21.3 2 19.9 N 9 24 5 13 1016.2 1015.4 0.0

Other Formats:

Comma delimited format used in spreadsheet applications
http://www.bom.gov.au/fwo/IDS60801/IDS60801.95458.axf

JavaScript Object Notation format (JSON) in row-major order
http://www.bom.gov.au/fwo/IDS60801/IDS60801.95458.json